sensor_id;sensor_type;location;lat;lon;timestamp;temperature;humidity
12164;DHT22;6145;50.192;10.064;2022-10-16T00:00:35;16.80;97.70
12164;DHT22;6145;50.192;10.064;2022-10-16T00:03:03;16.30;97.60
12164;DHT22;6145;50.192;10.064;2022-10-16T00:05:32;16.30;97.70
12164;DHT22;6145;50.192;10.064;2022-10-16T00:07:58;16.20;97.80
12164;DHT22;6145;50.192;10.064;2022-10-16T00:10:25;16.20;97.80
12164;DHT22;6145;50.192;10.064;2022-10-16T00:12:52;16.30;97.90
12164;DHT22;6145;50.192;10.064;2022-10-16T00:15:19;16.30;97.80
12164;DHT22;6145;50.192;10.064;2022-10-16T00:17:46;17.70;98.40
12164;DHT22;6145;50.192;10.064;2022-10-16T00:20:13;16.30;97.60
12164;DHT22;6145;50.192;10.064;2022-10-16T00:22:41;16.40;97.50
12164;DHT22;6145;50.192;10.064;2022-10-16T00:25:08;16.40;97.30
12164;DHT22;6145;50.192;10.064;2022-10-16T00:27:35;17.80;97.90
12164;DHT22;6145;50.192;10.064;2022-10-16T00:30:02;16.60;97.30
12164;DHT22;6145;50.192;10.064;2022-10-16T00:32:29;16.30;97.20
12164;DHT22;6145;50.192;10.064;2022-10-16T00:34:56;16.20;97.20
12164;DHT22;6145;50.192;10.064;2022-10-16T00:37:23;16.20;97.30
12164;DHT22;6145;50.192;10.064;2022-10-16T00:39:51;16.90;97.60
12164;DHT22;6145;50.192;10.064;2022-10-16T00:42:19;16.20;97.30
12164;DHT22;6145;50.192;10.064;2022-10-16T00:44:50;16.20;97.30
12164;DHT22;6145;50.192;10.064;2022-10-16T00:47:21;16.10;97.50
12164;DHT22;6145;50.192;10.064;2022-10-16T00:49:50;16.10;97.70
12164;DHT22;6145;50.192;10.064;2022-10-16T00:52:18;16.10;97.80
12164;DHT22;6145;50.192;10.064;2022-10-16T00:54:46;16.00;98.10
12164;DHT22;6145;50.192;10.064;2022-10-16T00:57:14;16.60;98.50
12164;DHT22;6145;50.192;10.064;2022-10-16T00:59:42;16.00;98.30
12164;DHT22;6145;50.192;10.064;2022-10-16T01:02:11;16.00;98.50
12164;DHT22;6145;50.192;10.064;2022-10-16T01:04:39;16.00;98.70
12164;DHT22;6145;50.192;10.064;2022-10-16T01:07:12;16.10;98.90
12164;DHT22;6145;50.192;10.064;2022-10-16T01:09:47;16.30;99.20
12164;DHT22;6145;50.192;10.064;2022-10-16T01:12:22;16.00;99.10
12164;DHT22;6145;50.192;10.064;2022-10-16T01:14:54;16.00;99.30
12164;DHT22;6145;50.192;10.064;2022-10-16T01:17:26;16.00;99.60
12164;DHT22;6145;50.192;10.064;2022-10-16T01:20:03;16.00;99.90
12164;DHT22;6145;50.192;10.064;2022-10-16T01:22:42;16.40;99.90
12164;DHT22;6145;50.192;10.064;2022-10-16T01:25:15;16.00;99.90
12164;DHT22;6145;50.192;10.064;2022-10-16T01:27:46;16.00;99.90
12164;DHT22;6145;50.192;10.064;2022-10-16T01:30:18;16.00;99.90
12164;DHT22;6145;50.192;10.064;2022-10-16T01:32:50;16.10;99.90
12164;DHT22;6145;50.192;10.064;2022-10-16T01:35:23;16.20;99.90
12164;DHT22;6145;50.192;10.064;2022-10-16T01:37:55;16.00;99.90
12164;DHT22;6145;50.192;10.064;2022-10-16T01:40:26;16.40;99.90
12164;DHT22;6145;50.192;10.064;2022-10-16T01:42:58;16.10;99.90
12164;DHT22;6145;50.192;10.064;2022-10-16T01:45:28;16.10;99.90
12164;DHT22;6145;50.192;10.064;2022-10-16T01:47:57;16.10;99.90
12164;DHT22;6145;50.192;10.064;2022-10-16T01:50:26;16.10;99.90
12164;DHT22;6145;50.192;10.064;2022-10-16T01:52:55;16.20;99.90
12164;DHT22;6145;50.192;10.064;2022-10-16T01:55:26;16.20;99.90
12164;DHT22;6145;50.192;10.064;2022-10-16T01:57:58;16.80;99.90
12164;DHT22;6145;50.192;10.064;2022-10-16T02:00:26;16.40;99.90
12164;DHT22;6145;50.192;10.064;2022-10-16T02:02:54;17.50;99.90
12164;DHT22;6145;50.192;10.064;2022-10-16T02:05:25;16.80;99.90
12164;DHT22;6145;50.192;10.064;2022-10-16T02:07:53;16.10;99.90
12164;DHT22;6145;50.192;10.064;2022-10-16T02:10:20;16.00;99.90
12164;DHT22;6145;50.192;10.064;2022-10-16T02:12:50;16.00;99.90
12164;DHT22;6145;50.192;10.064;2022-10-16T02:15:21;16.00;99.90
12164;DHT22;6145;50.192;10.064;2022-10-16T02:17:48;16.00;99.90
12164;DHT22;6145;50.192;10.064;2022-10-16T02:20:15;16.00;99.90
12164;DHT22;6145;50.192;10.064;2022-10-16T02:22:45;16.10;99.90
12164;DHT22;6145;50.192;10.064;2022-10-16T02:25:17;16.40;99.90
12164;DHT22;6145;50.192;10.064;2022-10-16T02:27:47;16.00;99.90
12164;DHT22;6145;50.192;10.064;2022-10-16T02:30:22;16.00;99.90
12164;DHT22;6145;50.192;10.064;2022-10-16T02:32:53;16.10;99.90
12164;DHT22;6145;50.192;10.064;2022-10-16T02:35:21;16.40;99.90
12164;DHT22;6145;50.192;10.064;2022-10-16T02:37:50;16.10;99.90
12164;DHT22;6145;50.192;10.064;2022-10-16T02:40:18;16.10;99.80
12164;DHT22;6145;50.192;10.064;2022-10-16T02:42:49;16.10;99.70
12164;DHT22;6145;50.192;10.064;2022-10-16T02:45:18;16.30;99.70
12164;DHT22;6145;50.192;10.064;2022-10-16T02:47:46;16.10;99.50
12164;DHT22;6145;50.192;10.064;2022-10-16T02:50:13;17.50;99.90
12164;DHT22;6145;50.192;10.064;2022-10-16T02:52:40;16.10;99.30
12164;DHT22;6145;50.192;10.064;2022-10-16T02:55:08;16.10;99.30
12164;DHT22;6145;50.192;10.064;2022-10-16T02:57:34;16.10;99.20
12164;DHT22;6145;50.192;10.064;2022-10-16T03:00:03;16.10;99.10
12164;DHT22;6145;50.192;10.064;2022-10-16T03:02:30;16.10;99.10
12164;DHT22;6145;50.192;10.064;2022-10-16T03:04:58;16.30;99.20
12164;DHT22;6145;50.192;10.064;2022-10-16T03:07:25;16.20;99.20
12164;DHT22;6145;50.192;10.064;2022-10-16T03:09:52;16.10;99.20
12164;DHT22;6145;50.192;10.064;2022-10-16T03:12:20;16.10;99.30
12164;DHT22;6145;50.192;10.064;2022-10-16T03:14:46;16.00;99.40
12164;DHT22;6145;50.192;10.064;2022-10-16T03:17:13;16.20;99.60
12164;DHT22;6145;50.192;10.064;2022-10-16T03:19:42;16.00;99.60
12164;DHT22;6145;50.192;10.064;2022-10-16T03:22:10;16.20;99.90
12164;DHT22;6145;50.192;10.064;2022-10-16T03:24:37;16.00;99.80
12164;DHT22;6145;50.192;10.064;2022-10-16T03:27:03;16.00;99.90
12164;DHT22;6145;50.192;10.064;2022-10-16T03:29:30;15.90;99.90
12164;DHT22;6145;50.192;10.064;2022-10-16T03:31:58;15.90;99.90
12164;DHT22;6145;50.192;10.064;2022-10-16T03:34:25;15.90;99.90
12164;DHT22;6145;50.192;10.064;2022-10-16T03:36:52;16.60;99.90
12164;DHT22;6145;50.192;10.064;2022-10-16T03:39:20;15.90;99.90
12164;DHT22;6145;50.192;10.064;2022-10-16T03:41:47;16.90;99.90
12164;DHT22;6145;50.192;10.064;2022-10-16T03:44:14;15.90;99.90
12164;DHT22;6145;50.192;10.064;2022-10-16T03:46:41;15.80;99.90
12164;DHT22;6145;50.192;10.064;2022-10-16T03:49:08;16.10;99.90
12164;DHT22;6145;50.192;10.064;2022-10-16T03:51:35;15.80;99.90
12164;DHT22;6145;50.192;10.064;2022-10-16T03:54:01;15.90;99.90
12164;DHT22;6145;50.192;10.064;2022-10-16T03:56:30;15.90;99.90
12164;DHT22;6145;50.192;10.064;2022-10-16T03:58:56;15.90;99.90
12164;DHT22;6145;50.192;10.064;2022-10-16T04:01:23;16.90;99.90
12164;DHT22;6145;50.192;10.064;2022-10-16T04:03:50;15.80;99.90
12164;DHT22;6145;50.192;10.064;2022-10-16T04:06:17;15.80;99.90
12164;DHT22;6145;50.192;10.064;2022-10-16T04:08:44;15.80;99.90
12164;DHT22;6145;50.192;10.064;2022-10-16T04:11:11;15.80;99.90
12164;DHT22;6145;50.192;10.064;2022-10-16T04:13:39;16.30;99.90
12164;DHT22;6145;50.192;10.064;2022-10-16T04:16:07;15.70;99.50
12164;DHT22;6145;50.192;10.064;2022-10-16T04:18:33;15.80;99.60
12164;DHT22;6145;50.192;10.064;2022-10-16T04:21:03;15.80;99.50
12164;DHT22;6145;50.192;10.064;2022-10-16T04:23:30;16.70;99.90
12164;DHT22;6145;50.192;10.064;2022-10-16T04:25:57;15.90;99.40
12164;DHT22;6145;50.192;10.064;2022-10-16T04:28:24;15.90;99.40
12164;DHT22;6145;50.192;10.064;2022-10-16T04:30:52;15.90;99.50
12164;DHT22;6145;50.192;10.064;2022-10-16T04:33:19;15.90;99.40
12164;DHT22;6145;50.192;10.064;2022-10-16T04:35:46;15.90;99.40
12164;DHT22;6145;50.192;10.064;2022-10-16T04:38:12;15.90;99.30
12164;DHT22;6145;50.192;10.064;2022-10-16T04:40:41;15.90;99.50
12164;DHT22;6145;50.192;10.064;2022-10-16T04:43:08;17.40;99.90
12164;DHT22;6145;50.192;10.064;2022-10-16T04:45:36;15.90;99.40
12164;DHT22;6145;50.192;10.064;2022-10-16T04:48:04;16.00;99.40
12164;DHT22;6145;50.192;10.064;2022-10-16T04:50:31;16.00;99.30
12164;DHT22;6145;50.192;10.064;2022-10-16T04:52:57;15.90;99.20
12164;DHT22;6145;50.192;10.064;2022-10-16T04:55:25;16.00;99.30
12164;DHT22;6145;50.192;10.064;2022-10-16T04:57:51;16.00;99.40
12164;DHT22;6145;50.192;10.064;2022-10-16T05:00:18;16.20;99.40
12164;DHT22;6145;50.192;10.064;2022-10-16T05:02:45;16.00;99.10
12164;DHT22;6145;50.192;10.064;2022-10-16T05:05:13;16.10;99.10
12164;DHT22;6145;50.192;10.064;2022-10-16T05:07:40;16.00;99.10
12164;DHT22;6145;50.192;10.064;2022-10-16T05:10:07;16.00;99.10
12164;DHT22;6145;50.192;10.064;2022-10-16T05:12:34;16.00;99.50
12164;DHT22;6145;50.192;10.064;2022-10-16T05:15:01;15.90;99.20
12164;DHT22;6145;50.192;10.064;2022-10-16T05:17:30;16.00;99.20
12164;DHT22;6145;50.192;10.064;2022-10-16T05:19:57;16.00;99.30
12164;DHT22;6145;50.192;10.064;2022-10-16T05:22:25;16.00;99.40
12164;DHT22;6145;50.192;10.064;2022-10-16T05:24:59;16.00;99.40
12164;DHT22;6145;50.192;10.064;2022-10-16T05:27:26;16.00;99.30
12164;DHT22;6145;50.192;10.064;2022-10-16T05:29:53;16.10;99.30
12164;DHT22;6145;50.192;10.064;2022-10-16T05:32:20;16.00;99.20
12164;DHT22;6145;50.192;10.064;2022-10-16T05:34:47;16.00;99.20
12164;DHT22;6145;50.192;10.064;2022-10-16T05:37:13;15.90;99.20
12164;DHT22;6145;50.192;10.064;2022-10-16T05:39:41;16.00;99.40
12164;DHT22;6145;50.192;10.064;2022-10-16T05:42:08;16.20;99.50
12164;DHT22;6145;50.192;10.064;2022-10-16T05:44:35;16.60;99.80
12164;DHT22;6145;50.192;10.064;2022-10-16T05:47:02;15.80;99.60
12164;DHT22;6145;50.192;10.064;2022-10-16T05:49:29;15.80;99.80
12164;DHT22;6145;50.192;10.064;2022-10-16T05:51:56;15.70;99.90
12164;DHT22;6145;50.192;10.064;2022-10-16T05:54:28;15.80;99.90
12164;DHT22;6145;50.192;10.064;2022-10-16T05:56:56;15.80;99.90
12164;DHT22;6145;50.192;10.064;2022-10-16T05:59:23;17.50;99.90
12164;DHT22;6145;50.192;10.064;2022-10-16T06:01:50;15.80;99.90
12164;DHT22;6145;50.192;10.064;2022-10-16T06:04:19;15.70;99.90
12164;DHT22;6145;50.192;10.064;2022-10-16T06:06:45;15.70;99.90
12164;DHT22;6145;50.192;10.064;2022-10-16T06:09:13;15.70;99.90
12164;DHT22;6145;50.192;10.064;2022-10-16T06:11:40;15.70;99.90
12164;DHT22;6145;50.192;10.064;2022-10-16T06:14:09;15.70;99.90
12164;DHT22;6145;50.192;10.064;2022-10-16T06:16:37;15.70;99.90
12164;DHT22;6145;50.192;10.064;2022-10-16T06:19:04;16.00;99.90
12164;DHT22;6145;50.192;10.064;2022-10-16T06:21:33;16.20;99.90
12164;DHT22;6145;50.192;10.064;2022-10-16T06:24:00;15.80;99.90
12164;DHT22;6145;50.192;10.064;2022-10-16T06:26:29;15.80;99.90
12164;DHT22;6145;50.192;10.064;2022-10-16T06:28:59;15.80;99.90
12164;DHT22;6145;50.192;10.064;2022-10-16T06:31:28;15.90;99.90
12164;DHT22;6145;50.192;10.064;2022-10-16T06:33:56;16.00;99.90
12164;DHT22;6145;50.192;10.064;2022-10-16T06:36:24;16.10;99.90
12164;DHT22;6145;50.192;10.064;2022-10-16T06:38:51;16.00;99.60
12164;DHT22;6145;50.192;10.064;2022-10-16T06:41:25;16.70;99.60
12164;DHT22;6145;50.192;10.064;2022-10-16T06:43:52;16.00;99.40
12164;DHT22;6145;50.192;10.064;2022-10-16T06:46:21;16.00;99.10
12164;DHT22;6145;50.192;10.064;2022-10-16T06:48:51;16.10;99.20
12164;DHT22;6145;50.192;10.064;2022-10-16T06:51:20;16.10;99.30
12164;DHT22;6145;50.192;10.064;2022-10-16T06:53:48;16.40;99.50
12164;DHT22;6145;50.192;10.064;2022-10-16T06:56:17;16.10;99.40
12164;DHT22;6145;50.192;10.064;2022-10-16T06:58:44;16.00;99.40
12164;DHT22;6145;50.192;10.064;2022-10-16T07:01:12;16.00;99.50
12164;DHT22;6145;50.192;10.064;2022-10-16T07:03:39;16.00;99.60
12164;DHT22;6145;50.192;10.064;2022-10-16T07:06:13;16.10;99.70
12164;DHT22;6145;50.192;10.064;2022-10-16T07:08:42;16.50;99.90
12164;DHT22;6145;50.192;10.064;2022-10-16T07:11:11;16.30;99.80
12164;DHT22;6145;50.192;10.064;2022-10-16T07:13:40;16.10;99.80
12164;DHT22;6145;50.192;10.064;2022-10-16T07:16:09;16.10;99.90
12164;DHT22;6145;50.192;10.064;2022-10-16T07:18:36;16.10;99.90
12164;DHT22;6145;50.192;10.064;2022-10-16T07:21:05;16.10;99.90
12164;DHT22;6145;50.192;10.064;2022-10-16T07:23:34;16.10;99.90
12164;DHT22;6145;50.192;10.064;2022-10-16T07:26:01;16.30;99.90
12164;DHT22;6145;50.192;10.064;2022-10-16T07:28:28;16.40;99.90
12164;DHT22;6145;50.192;10.064;2022-10-16T07:30:55;16.10;99.90
12164;DHT22;6145;50.192;10.064;2022-10-16T07:33:22;16.10;99.90
12164;DHT22;6145;50.192;10.064;2022-10-16T07:35:50;16.60;99.90
12164;DHT22;6145;50.192;10.064;2022-10-16T07:38:17;16.20;99.90
12164;DHT22;6145;50.192;10.064;2022-10-16T07:40:46;16.60;99.90
12164;DHT22;6145;50.192;10.064;2022-10-16T07:43:13;16.30;99.90
12164;DHT22;6145;50.192;10.064;2022-10-16T07:45:47;16.10;99.90
12164;DHT22;6145;50.192;10.064;2022-10-16T07:48:14;16.30;99.90
12164;DHT22;6145;50.192;10.064;2022-10-16T07:50:41;16.30;99.90
12164;DHT22;6145;50.192;10.064;2022-10-16T07:53:08;16.20;99.90
12164;DHT22;6145;50.192;10.064;2022-10-16T07:55:36;16.20;99.90
12164;DHT22;6145;50.192;10.064;2022-10-16T07:58:05;16.20;99.90
12164;DHT22;6145;50.192;10.064;2022-10-16T08:00:32;16.30;99.90
12164;DHT22;6145;50.192;10.064;2022-10-16T08:03:00;16.70;99.90
12164;DHT22;6145;50.192;10.064;2022-10-16T08:05:27;16.40;99.90
12164;DHT22;6145;50.192;10.064;2022-10-16T08:07:54;16.30;99.90
12164;DHT22;6145;50.192;10.064;2022-10-16T08:10:22;16.40;99.90
12164;DHT22;6145;50.192;10.064;2022-10-16T08:12:49;16.40;99.90
12164;DHT22;6145;50.192;10.064;2022-10-16T08:15:18;16.50;99.90
12164;DHT22;6145;50.192;10.064;2022-10-16T08:17:54;16.50;99.90
12164;DHT22;6145;50.192;10.064;2022-10-16T08:20:21;16.60;99.90
12164;DHT22;6145;50.192;10.064;2022-10-16T08:22:48;16.60;99.90
12164;DHT22;6145;50.192;10.064;2022-10-16T08:25:14;16.60;99.90
12164;DHT22;6145;50.192;10.064;2022-10-16T08:27:41;17.30;99.90
12164;DHT22;6145;50.192;10.064;2022-10-16T08:30:10;16.70;99.90
12164;DHT22;6145;50.192;10.064;2022-10-16T08:32:38;16.80;99.90
12164;DHT22;6145;50.192;10.064;2022-10-16T08:35:07;16.80;99.90
12164;DHT22;6145;50.192;10.064;2022-10-16T08:37:35;16.90;99.90
12164;DHT22;6145;50.192;10.064;2022-10-16T08:40:03;16.90;99.90
12164;DHT22;6145;50.192;10.064;2022-10-16T08:42:38;16.90;99.90
12164;DHT22;6145;50.192;10.064;2022-10-16T08:45:32;17.00;99.90
12164;DHT22;6145;50.192;10.064;2022-10-16T08:48:09;17.10;99.90
12164;DHT22;6145;50.192;10.064;2022-10-16T08:50:42;17.10;99.90
12164;DHT22;6145;50.192;10.064;2022-10-16T08:53:15;17.20;99.90
12164;DHT22;6145;50.192;10.064;2022-10-16T08:55:48;17.40;99.90
12164;DHT22;6145;50.192;10.064;2022-10-16T08:58:18;17.50;99.90
12164;DHT22;6145;50.192;10.064;2022-10-16T09:00:48;17.40;99.90
12164;DHT22;6145;50.192;10.064;2022-10-16T09:03:32;17.60;99.90
12164;DHT22;6145;50.192;10.064;2022-10-16T09:06:29;17.60;99.90
12164;DHT22;6145;50.192;10.064;2022-10-16T09:11:55;17.80;99.90
12164;DHT22;6145;50.192;10.064;2022-10-16T09:14:36;17.80;99.90
12164;DHT22;6145;50.192;10.064;2022-10-16T09:17:18;17.90;99.90
12164;DHT22;6145;50.192;10.064;2022-10-16T09:19:53;17.90;99.90
12164;DHT22;6145;50.192;10.064;2022-10-16T09:22:26;18.00;99.90
12164;DHT22;6145;50.192;10.064;2022-10-16T09:24:55;18.00;99.90
12164;DHT22;6145;50.192;10.064;2022-10-16T09:27:26;18.30;99.90
12164;DHT22;6145;50.192;10.064;2022-10-16T09:29:53;18.00;99.80
12164;DHT22;6145;50.192;10.064;2022-10-16T09:32:21;18.00;99.60
12164;DHT22;6145;50.192;10.064;2022-10-16T09:34:52;18.00;99.80
12164;DHT22;6145;50.192;10.064;2022-10-16T09:37:22;17.90;99.90
12164;DHT22;6145;50.192;10.064;2022-10-16T09:39:52;17.90;99.90
12164;DHT22;6145;50.192;10.064;2022-10-16T09:42:23;17.90;99.90
12164;DHT22;6145;50.192;10.064;2022-10-16T09:44:52;17.90;99.90
12164;DHT22;6145;50.192;10.064;2022-10-16T09:47:21;18.00;99.90
12164;DHT22;6145;50.192;10.064;2022-10-16T09:49:56;17.90;99.90
12164;DHT22;6145;50.192;10.064;2022-10-16T09:52:25;17.90;99.90
12164;DHT22;6145;50.192;10.064;2022-10-16T09:54:53;17.90;99.90
12164;DHT22;6145;50.192;10.064;2022-10-16T09:57:21;18.00;99.90
12164;DHT22;6145;50.192;10.064;2022-10-16T09:59:49;18.00;99.90
12164;DHT22;6145;50.192;10.064;2022-10-16T10:02:17;18.00;99.80
12164;DHT22;6145;50.192;10.064;2022-10-16T10:04:49;18.00;99.90
12164;DHT22;6145;50.192;10.064;2022-10-16T10:07:21;18.00;99.90
12164;DHT22;6145;50.192;10.064;2022-10-16T10:09:49;18.00;99.90
12164;DHT22;6145;50.192;10.064;2022-10-16T10:12:19;18.00;99.90
12164;DHT22;6145;50.192;10.064;2022-10-16T10:14:48;18.00;99.90
12164;DHT22;6145;50.192;10.064;2022-10-16T10:17:18;18.00;99.90
12164;DHT22;6145;50.192;10.064;2022-10-16T10:19:51;17.90;99.90
12164;DHT22;6145;50.192;10.064;2022-10-16T10:22:26;17.90;99.90
12164;DHT22;6145;50.192;10.064;2022-10-16T10:28:24;17.80;99.90
12164;DHT22;6145;50.192;10.064;2022-10-16T10:30:59;17.70;99.90
12164;DHT22;6145;50.192;10.064;2022-10-16T10:33:34;17.80;99.90
12164;DHT22;6145;50.192;10.064;2022-10-16T10:36:12;18.10;99.90
12164;DHT22;6145;50.192;10.064;2022-10-16T10:38:50;17.50;99.90
12164;DHT22;6145;50.192;10.064;2022-10-16T10:41:44;17.50;99.90
12164;DHT22;6145;50.192;10.064;2022-10-16T10:44:21;17.50;99.90
12164;DHT22;6145;50.192;10.064;2022-10-16T10:46:53;17.60;99.90
12164;DHT22;6145;50.192;10.064;2022-10-16T10:49:32;17.60;99.90
12164;DHT22;6145;50.192;10.064;2022-10-16T10:52:16;17.60;99.90
12164;DHT22;6145;50.192;10.064;2022-10-16T10:54:58;17.70;99.90
12164;DHT22;6145;50.192;10.064;2022-10-16T10:57:33;17.70;99.90
12164;DHT22;6145;50.192;10.064;2022-10-16T11:00:17;17.80;99.90
12164;DHT22;6145;50.192;10.064;2022-10-16T11:02:50;17.90;99.90
12164;DHT22;6145;50.192;10.064;2022-10-16T11:05:40;18.10;99.90
12164;DHT22;6145;50.192;10.064;2022-10-16T11:08:12;18.10;99.90
12164;DHT22;6145;50.192;10.064;2022-10-16T11:10:47;18.10;99.90
12164;DHT22;6145;50.192;10.064;2022-10-16T11:13:21;18.10;99.90
12164;DHT22;6145;50.192;10.064;2022-10-16T11:15:55;18.20;99.90
12164;DHT22;6145;50.192;10.064;2022-10-16T11:18:27;18.20;99.90
12164;DHT22;6145;50.192;10.064;2022-10-16T11:21:00;18.30;99.90
12164;DHT22;6145;50.192;10.064;2022-10-16T11:23:33;18.40;99.90
12164;DHT22;6145;50.192;10.064;2022-10-16T11:26:08;18.60;99.90
12164;DHT22;6145;50.192;10.064;2022-10-16T11:28:43;18.70;99.90
12164;DHT22;6145;50.192;10.064;2022-10-16T11:31:16;18.70;99.90
12164;DHT22;6145;50.192;10.064;2022-10-16T11:33:46;18.80;99.90
12164;DHT22;6145;50.192;10.064;2022-10-16T11:36:17;18.80;99.80
12164;DHT22;6145;50.192;10.064;2022-10-16T11:38:51;18.90;99.40
12164;DHT22;6145;50.192;10.064;2022-10-16T11:41:27;18.90;99.10
12164;DHT22;6145;50.192;10.064;2022-10-16T11:44:07;19.00;99.30
12164;DHT22;6145;50.192;10.064;2022-10-16T11:46:38;19.00;99.40
12164;DHT22;6145;50.192;10.064;2022-10-16T11:49:11;19.60;98.60
12164;DHT22;6145;50.192;10.064;2022-10-16T11:51:43;19.10;98.70
12164;DHT22;6145;50.192;10.064;2022-10-16T11:54:20;19.20;98.30
12164;DHT22;6145;50.192;10.064;2022-10-16T11:56:52;19.30;97.50
12164;DHT22;6145;50.192;10.064;2022-10-16T11:59:23;19.30;97.40
12164;DHT22;6145;50.192;10.064;2022-10-16T12:01:58;19.40;97.50
12164;DHT22;6145;50.192;10.064;2022-10-16T12:04:40;19.40;96.90
12164;DHT22;6145;50.192;10.064;2022-10-16T12:07:13;19.50;97.20
12164;DHT22;6145;50.192;10.064;2022-10-16T12:09:42;19.60;96.70
12164;DHT22;6145;50.192;10.064;2022-10-16T12:15:17;19.60;96.40
12164;DHT22;6145;50.192;10.064;2022-10-16T12:17:45;19.70;95.70
12164;DHT22;6145;50.192;10.064;2022-10-16T12:20:24;19.80;95.50
12164;DHT22;6145;50.192;10.064;2022-10-16T12:22:54;19.80;95.60
12164;DHT22;6145;50.192;10.064;2022-10-16T12:25:24;19.90;95.30
12164;DHT22;6145;50.192;10.064;2022-10-16T12:28:01;19.90;94.90
12164;DHT22;6145;50.192;10.064;2022-10-16T12:30:33;19.90;94.90
12164;DHT22;6145;50.192;10.064;2022-10-16T12:33:02;19.90;95.00
12164;DHT22;6145;50.192;10.064;2022-10-16T12:35:32;20.00;95.00
12164;DHT22;6145;50.192;10.064;2022-10-16T12:38:08;20.00;94.90
12164;DHT22;6145;50.192;10.064;2022-10-16T12:40:39;20.10;94.80
12164;DHT22;6145;50.192;10.064;2022-10-16T12:43:25;20.50;94.90
12164;DHT22;6145;50.192;10.064;2022-10-16T12:46:06;20.20;95.00
12164;DHT22;6145;50.192;10.064;2022-10-16T12:48:47;20.20;95.30
12164;DHT22;6145;50.192;10.064;2022-10-16T12:51:22;20.40;95.50
12164;DHT22;6145;50.192;10.064;2022-10-16T12:53:58;20.40;95.60
12164;DHT22;6145;50.192;10.064;2022-10-16T12:56:34;20.40;95.30
12164;DHT22;6145;50.192;10.064;2022-10-16T12:59:12;20.50;94.60
12164;DHT22;6145;50.192;10.064;2022-10-16T13:02:00;20.80;94.70
12164;DHT22;6145;50.192;10.064;2022-10-16T13:04:38;20.60;93.60
12164;DHT22;6145;50.192;10.064;2022-10-16T13:07:22;20.70;92.10
12164;DHT22;6145;50.192;10.064;2022-10-16T13:10:02;20.80;91.60
12164;DHT22;6145;50.192;10.064;2022-10-16T13:12:54;20.70;91.40
12164;DHT22;6145;50.192;10.064;2022-10-16T13:15:39;20.70;91.00
12164;DHT22;6145;50.192;10.064;2022-10-16T13:18:14;20.70;90.90
12164;DHT22;6145;50.192;10.064;2022-10-16T13:20:55;20.60;89.70
12164;DHT22;6145;50.192;10.064;2022-10-16T13:23:29;20.60;90.60
12164;DHT22;6145;50.192;10.064;2022-10-16T13:26:05;20.60;91.00
12164;DHT22;6145;50.192;10.064;2022-10-16T13:28:38;20.80;91.70
12164;DHT22;6145;50.192;10.064;2022-10-16T13:31:13;20.70;91.50
12164;DHT22;6145;50.192;10.064;2022-10-16T13:33:46;20.70;90.90
12164;DHT22;6145;50.192;10.064;2022-10-16T13:36:21;20.80;91.10
12164;DHT22;6145;50.192;10.064;2022-10-16T13:38:48;20.90;91.00
12164;DHT22;6145;50.192;10.064;2022-10-16T13:41:16;20.90;91.10
12164;DHT22;6145;50.192;10.064;2022-10-16T13:43:45;20.90;90.60
12164;DHT22;6145;50.192;10.064;2022-10-16T13:46:14;21.00;91.30
12164;DHT22;6145;50.192;10.064;2022-10-16T13:48:44;21.20;90.80
12164;DHT22;6145;50.192;10.064;2022-10-16T13:51:13;21.20;90.40
12164;DHT22;6145;50.192;10.064;2022-10-16T13:53:41;21.40;90.10
12164;DHT22;6145;50.192;10.064;2022-10-16T13:56:11;21.20;89.80
12164;DHT22;6145;50.192;10.064;2022-10-16T13:58:38;21.20;89.30
12164;DHT22;6145;50.192;10.064;2022-10-16T14:01:14;21.30;89.60
12164;DHT22;6145;50.192;10.064;2022-10-16T14:03:44;21.30;88.90
12164;DHT22;6145;50.192;10.064;2022-10-16T14:06:14;21.40;89.90
12164;DHT22;6145;50.192;10.064;2022-10-16T14:08:45;21.40;88.90
12164;DHT22;6145;50.192;10.064;2022-10-16T14:11:20;21.40;87.60
12164;DHT22;6145;50.192;10.064;2022-10-16T14:13:49;21.30;86.90
12164;DHT22;6145;50.192;10.064;2022-10-16T14:16:20;21.20;87.50
12164;DHT22;6145;50.192;10.064;2022-10-16T14:18:55;21.20;88.20
12164;DHT22;6145;50.192;10.064;2022-10-16T14:21:22;21.10;89.20
12164;DHT22;6145;50.192;10.064;2022-10-16T14:23:50;21.20;89.40
12164;DHT22;6145;50.192;10.064;2022-10-16T14:26:19;21.20;89.40
12164;DHT22;6145;50.192;10.064;2022-10-16T14:28:48;21.30;89.60
12164;DHT22;6145;50.192;10.064;2022-10-16T14:31:26;21.30;88.30
12164;DHT22;6145;50.192;10.064;2022-10-16T14:33:55;21.40;88.10
12164;DHT22;6145;50.192;10.064;2022-10-16T14:36:22;21.30;87.60
12164;DHT22;6145;50.192;10.064;2022-10-16T14:38:59;21.30;88.10
12164;DHT22;6145;50.192;10.064;2022-10-16T14:41:29;21.30;87.60
12164;DHT22;6145;50.192;10.064;2022-10-16T14:43:57;21.30;87.50
12164;DHT22;6145;50.192;10.064;2022-10-16T14:46:33;21.30;87.50
12164;DHT22;6145;50.192;10.064;2022-10-16T14:49:04;21.30;89.00
12164;DHT22;6145;50.192;10.064;2022-10-16T14:51:41;21.30;89.80
12164;DHT22;6145;50.192;10.064;2022-10-16T14:54:10;21.20;88.60
12164;DHT22;6145;50.192;10.064;2022-10-16T14:56:45;21.20;89.00
12164;DHT22;6145;50.192;10.064;2022-10-16T14:59:15;21.50;89.20
12164;DHT22;6145;50.192;10.064;2022-10-16T15:01:43;21.20;88.70
12164;DHT22;6145;50.192;10.064;2022-10-16T15:04:12;21.20;89.60
12164;DHT22;6145;50.192;10.064;2022-10-16T15:06:39;21.20;90.00
12164;DHT22;6145;50.192;10.064;2022-10-16T15:09:06;21.20;90.00
12164;DHT22;6145;50.192;10.064;2022-10-16T15:11:33;21.20;90.20
12164;DHT22;6145;50.192;10.064;2022-10-16T15:14:01;21.20;90.00
12164;DHT22;6145;50.192;10.064;2022-10-16T15:16:29;21.20;89.50
12164;DHT22;6145;50.192;10.064;2022-10-16T15:18:56;21.20;89.60
12164;DHT22;6145;50.192;10.064;2022-10-16T15:21:27;21.10;90.00
12164;DHT22;6145;50.192;10.064;2022-10-16T15:23:55;21.10;90.00
12164;DHT22;6145;50.192;10.064;2022-10-16T15:26:23;21.10;90.30
12164;DHT22;6145;50.192;10.064;2022-10-16T15:28:50;21.00;90.50
12164;DHT22;6145;50.192;10.064;2022-10-16T15:31:17;21.00;90.80
12164;DHT22;6145;50.192;10.064;2022-10-16T15:33:43;21.00;90.60
12164;DHT22;6145;50.192;10.064;2022-10-16T15:36:13;21.00;90.90
12164;DHT22;6145;50.192;10.064;2022-10-16T15:38:41;20.90;90.90
12164;DHT22;6145;50.192;10.064;2022-10-16T15:41:08;21.00;90.90
12164;DHT22;6145;50.192;10.064;2022-10-16T15:43:35;20.90;90.90
12164;DHT22;6145;50.192;10.064;2022-10-16T15:46:04;20.90;90.90
12164;DHT22;6145;50.192;10.064;2022-10-16T15:48:32;20.90;90.90
12164;DHT22;6145;50.192;10.064;2022-10-16T15:50:59;20.90;91.00
12164;DHT22;6145;50.192;10.064;2022-10-16T15:53:26;20.90;91.00
12164;DHT22;6145;50.192;10.064;2022-10-16T15:55:54;20.90;91.00
12164;DHT22;6145;50.192;10.064;2022-10-16T15:58:21;20.80;91.00